Time;durP1;ratioP1;P1;durP2;ratioP2;P2;SDS_P1;SDS_P2;PMS_P1;PMS_P2;Temp;Humidity;BMP_temperature;BMP_pressure;BME280_temperature;BME280_humidity;BME280_pressure;Samples;Min_cycle;Max_cycle;Signal;HPM_P1;HPM_P2
2022/10/30 00:00:41;;;;;;;33.75;14.27;;;13.50;99.90;;;;;;5042816;28;20348;-81
2022/10/30 00:03:11;;;;;;;32.88;14.60;;;13.40;99.90;;;;;;5077808;28;20048;-82
2022/10/30 00:05:41;;;;;;;27.75;13.80;;;13.40;99.90;;;;;;5077677;28;20044;-78
2022/10/30 00:08:08;;;;;;;34.17;15.05;;;13.30;99.90;;;;;;5058066;28;20048;-80
2022/10/30 00:10:34;;;;;;;35.85;14.15;;;13.40;99.90;;;;;;5057452;28;20056;-81
2022/10/30 00:13:00;;;;;;;27.40;13.50;;;13.20;99.90;;;;;;5062133;28;20090;-81
2022/10/30 00:15:25;;;;;;;34.03;14.80;;;13.30;99.90;;;;;;5088193;28;20105;-80
2022/10/30 00:17:51;;;;;;;32.40;14.80;;;13.30;99.90;;;;;;5072662;28;20455;-80
2022/10/30 00:20:17;;;;;;;34.38;14.40;;;13.30;99.90;;;;;;5042115;28;20484;-80
2022/10/30 00:22:43;;;;;;;33.10;13.95;;;13.30;99.90;;;;;;5075578;28;20062;-80
2022/10/30 00:25:10;;;;;;;28.25;14.70;;;13.20;99.90;;;;;;5041980;28;20442;-80
2022/10/30 00:27:35;;;;;;;29.05;13.57;;;13.30;99.90;;;;;;5061393;28;20044;-82
2022/10/30 00:30:01;;;;;;;30.13;13.02;;;13.20;99.90;;;;;;5094031;28;20051;-80
2022/10/30 00:32:27;;;;;;;36.88;14.38;;;13.00;99.90;;;;;;5046472;28;20061;-80
2022/10/30 00:34:53;;;;;;;24.48;12.98;;;13.10;99.90;;;;;;5091436;28;20130;-80
2022/10/30 00:37:19;;;;;;;33.10;13.02;;;13.20;99.90;;;;;;5073478;28;20230;-79
2022/10/30 00:39:44;;;;;;;38.55;13.85;;;13.20;99.90;;;;;;5061315;28;20043;-79
2022/10/30 00:42:13;;;;;;;41.10;14.38;;;13.00;99.90;;;;;;5057713;28;20053;-79
2022/10/30 00:45:09;;;;;;;32.58;14.13;;;13.10;99.90;;;;;;5049267;28;20040;-80
2022/10/30 00:47:43;;;;;;;32.47;13.15;;;13.10;99.90;;;;;;5037958;28;20539;-81
2022/10/30 00:50:34;;;;;;;32.83;13.45;;;13.10;99.90;;;;;;5091937;28;20044;-81
2022/10/30 00:53:16;;;;;;;29.48;13.07;;;13.00;99.90;;;;;;5041463;28;20111;-79
2022/10/30 00:55:52;;;;;;;31.48;12.95;;;13.00;99.90;;;;;;5058263;28;20483;-80
2022/10/30 00:58:23;;;;;;;29.38;13.60;;;12.90;99.90;;;;;;5058720;28;20758;-80
2022/10/30 01:00:52;;;;;;;35.65;13.95;;;13.00;99.90;;;;;;5071472;28;20056;-81
2022/10/30 01:03:19;;;;;;;27.38;13.07;;;12.90;99.90;;;;;;5095528;28;20558;-80
2022/10/30 01:05:50;;;;;;;28.58;13.00;;;13.00;99.90;;;;;;5074074;28;20123;-80
2022/10/30 01:08:15;;;;;;;32.35;13.38;;;12.90;99.90;;;;;;5088306;28;20336;-82
2022/10/30 01:10:43;;;;;;;29.08;12.80;;;12.80;99.90;;;;;;5068986;28;20040;-80
2022/10/30 01:13:10;;;;;;;41.53;13.73;;;13.00;99.90;;;;;;5050326;28;20079;-81
2022/10/30 01:15:44;;;;;;;31.13;13.68;;;13.00;99.90;;;;;;5066923;28;20049;-82
2022/10/30 01:18:50;;;;;;;29.48;12.85;;;13.00;99.90;;;;;;5058799;28;20515;-79
2022/10/30 01:21:28;;;;;;;29.13;12.93;;;12.80;99.90;;;;;;5039463;28;20058;-80
2022/10/30 01:24:00;;;;;;;23.05;12.43;;;13.00;99.90;;;;;;5040944;28;20049;-81
2022/10/30 01:26:55;;;;;;;33.65;13.45;;;12.90;99.90;;;;;;5039361;28;20402;-80
2022/10/30 01:29:36;;;;;;;31.65;12.82;;;13.00;99.90;;;;;;5071495;28;20091;-81
2022/10/30 01:32:20;;;;;;;31.05;12.65;;;12.90;99.90;;;;;;5071827;28;20079;-79
2022/10/30 01:35:01;;;;;;;27.58;13.45;;;12.80;99.90;;;;;;5074252;28;20052;-80
2022/10/30 01:37:45;;;;;;;28.85;12.77;;;13.00;99.90;;;;;;5075376;28;20044;-81
2022/10/30 01:40:13;;;;;;;32.50;12.90;;;12.90;99.90;;;;;;5040759;28;20052;-81
2022/10/30 01:42:51;;;;;;;32.10;12.88;;;12.80;99.90;;;;;;5040342;28;20035;-79
2022/10/30 01:45:37;;;;;;;35.80;13.25;;;12.80;99.90;;;;;;5036748;28;20375;-81
2022/10/30 01:48:02;;;;;;;32.03;13.30;;;12.70;99.90;;;;;;5047886;28;20064;-82
2022/10/30 01:50:42;;;;;;;35.05;12.85;;;12.70;99.90;;;;;;5073040;28;20041;-83
2022/10/30 01:53:41;;;;;;;37.63;12.68;;;12.70;99.90;;;;;;5058790;28;20036;-82
2022/10/30 01:56:31;;;;;;;32.92;13.05;;;12.70;99.90;;;;;;5101012;28;20170;-80
2022/10/30 01:59:20;;;;;;;36.03;13.38;;;12.70;99.90;;;;;;5083848;28;20036;-81
2022/10/30 02:01:46;;;;;;;36.92;13.50;;;12.70;99.90;;;;;;5075708;28;20079;-81
2022/10/30 02:04:13;;;;;;;36.35;13.18;;;12.80;99.90;;;;;;5078366;28;20535;-82
2022/10/30 02:06:40;;;;;;;32.67;13.18;;;12.70;99.90;;;;;;5084903;28;20139;-81
2022/10/30 02:09:06;;;;;;;30.45;13.85;;;12.80;99.90;;;;;;5046225;28;20315;-81
2022/10/30 02:11:33;;;;;;;29.67;12.70;;;12.70;99.90;;;;;;5081013;28;20048;-80
2022/10/30 02:14:07;;;;;;;34.95;13.52;;;12.70;99.90;;;;;;5097792;28;20055;-81
2022/10/30 02:16:36;;;;;;;29.02;13.95;;;12.70;99.90;;;;;;5039301;28;20040;-80
2022/10/30 02:19:02;;;;;;;32.33;13.48;;;12.60;99.90;;;;;;5075886;28;20064;-81
2022/10/30 02:21:28;;;;;;;25.30;14.23;;;12.70;99.90;;;;;;5092123;28;20454;-80
2022/10/30 02:23:57;;;;;;;26.75;12.90;;;12.60;99.90;;;;;;5077931;28;20101;-81
2022/10/30 02:26:22;;;;;;;23.60;12.52;;;12.60;99.90;;;;;;5063356;28;20056;-80
2022/10/30 02:28:49;;;;;;;28.95;13.88;;;12.60;99.90;;;;;;5051112;28;20051;-80
2022/10/30 02:31:15;;;;;;;37.33;13.63;;;12.70;99.90;;;;;;5049321;28;20047;-81
2022/10/30 02:33:45;;;;;;;33.30;14.25;;;12.70;99.90;;;;;;5044096;28;20037;-81
2022/10/30 02:36:14;;;;;;;31.67;13.23;;;12.60;99.90;;;;;;5091304;28;20067;-81
2022/10/30 02:38:40;;;;;;;26.63;12.98;;;12.50;99.90;;;;;;5067904;28;20041;-81
2022/10/30 02:41:06;;;;;;;36.22;13.75;;;12.60;99.90;;;;;;5039785;28;20476;-80
2022/10/30 02:43:32;;;;;;;34.55;13.65;;;12.50;99.90;;;;;;5042332;28;20095;-81
2022/10/30 02:45:58;;;;;;;30.00;12.23;;;12.60;99.90;;;;;;5060804;28;20035;-79
2022/10/30 02:48:23;;;;;;;34.00;12.27;;;12.50;99.90;;;;;;5056881;28;20048;-81
2022/10/30 02:50:50;;;;;;;26.48;13.55;;;12.50;99.90;;;;;;5045017;28;20063;-82
2022/10/30 02:53:15;;;;;;;29.95;12.65;;;12.50;99.90;;;;;;5060844;28;20036;-82
2022/10/30 02:55:41;;;;;;;35.50;13.30;;;12.50;99.90;;;;;;5041106;28;20443;-81
2022/10/30 02:58:07;;;;;;;28.33;13.07;;;12.30;99.90;;;;;;5041947;28;20055;-80
2022/10/30 03:00:34;;;;;;;32.28;13.40;;;12.30;99.90;;;;;;5039511;28;20044;-81
2022/10/30 03:02:59;;;;;;;22.75;13.55;;;12.30;99.90;;;;;;5075029;28;20496;-81
2022/10/30 03:05:25;;;;;;;32.38;14.00;;;12.40;99.90;;;;;;5056042;28;20128;-81
2022/10/30 03:07:52;;;;;;;36.13;14.35;;;12.20;99.90;;;;;;5045563;28;20036;-81
2022/10/30 03:10:18;;;;;;;34.65;13.15;;;12.30;99.90;;;;;;5077091;28;20117;-81
2022/10/30 03:12:44;;;;;;;31.90;14.10;;;12.30;99.90;;;;;;5041956;28;20044;-80
2022/10/30 03:15:09;;;;;;;31.33;13.23;;;12.30;99.90;;;;;;5074517;28;20261;-80
2022/10/30 03:17:35;;;;;;;42.53;14.27;;;12.20;99.90;;;;;;5071573;28;20036;-80
2022/10/30 03:20:01;;;;;;;28.80;13.20;;;12.20;99.90;;;;;;5064562;28;20125;-77
2022/10/30 03:22:26;;;;;;;30.42;14.18;;;12.30;99.90;;;;;;5044814;28;20664;-81
2022/10/30 03:24:52;;;;;;;29.00;13.55;;;12.30;99.90;;;;;;5067316;28;20045;-82
2022/10/30 03:27:18;;;;;;;32.78;14.07;;;12.30;99.90;;;;;;5044570;28;20051;-82
2022/10/30 03:29:44;;;;;;;27.00;13.32;;;12.20;99.90;;;;;;5072542;28;20130;-82
2022/10/30 03:32:10;;;;;;;31.88;13.10;;;12.20;99.90;;;;;;5073298;28;20353;-81
2022/10/30 03:34:36;;;;;;;31.48;13.07;;;12.20;99.90;;;;;;5041914;28;20506;-82
2022/10/30 03:37:03;;;;;;;36.17;13.60;;;12.20;99.90;;;;;;5069184;28;20044;-82
2022/10/30 03:39:28;;;;;;;27.95;12.98;;;12.00;99.90;;;;;;5063659;28;20027;-81
2022/10/30 03:41:54;;;;;;;36.95;12.93;;;12.10;99.90;;;;;;5062971;28;20043;-81
2022/10/30 03:44:20;;;;;;;32.67;13.50;;;12.20;99.90;;;;;;5075544;28;20443;-81
2022/10/30 03:46:45;;;;;;;30.95;14.07;;;12.20;99.90;;;;;;5094000;28;20509;-80
2022/10/30 03:49:11;;;;;;;35.92;13.35;;;12.40;99.90;;;;;;5058538;28;20123;-81
2022/10/30 03:51:36;;;;;;;27.88;13.60;;;12.20;99.90;;;;;;5078794;28;20043;-80
2022/10/30 03:54:02;;;;;;;28.58;13.10;;;12.20;99.90;;;;;;5039202;28;20054;-81
2022/10/30 03:56:28;;;;;;;27.25;14.00;;;12.30;99.90;;;;;;5042322;28;20067;-81
2022/10/30 03:58:53;;;;;;;33.08;14.30;;;12.40;99.90;;;;;;5073579;28;20068;-80
2022/10/30 04:01:19;;;;;;;36.85;14.00;;;12.30;99.90;;;;;;5079271;28;20093;-79
2022/10/30 04:03:45;;;;;;;32.28;14.15;;;12.10;99.90;;;;;;5057149;28;20032;-80
2022/10/30 04:06:11;;;;;;;40.72;13.85;;;12.30;99.90;;;;;;5061708;28;20105;-79
2022/10/30 04:08:36;;;;;;;32.90;14.05;;;12.20;99.90;;;;;;5062376;28;20112;-78
2022/10/30 04:11:02;;;;;;;32.15;13.93;;;12.30;99.90;;;;;;5042087;28;20113;-80
2022/10/30 04:13:28;;;;;;;35.72;14.43;;;12.40;99.90;;;;;;5049055;28;20105;-80
2022/10/30 04:15:53;;;;;;;31.88;14.32;;;12.50;99.90;;;;;;5053565;28;20074;-80
2022/10/30 04:18:19;;;;;;;36.13;14.23;;;12.40;99.90;;;;;;5057394;28;20040;-80
2022/10/30 04:20:45;;;;;;;34.30;14.65;;;12.40;99.90;;;;;;5061091;28;20118;-81
2022/10/30 04:23:18;;;;;;;35.08;14.73;;;12.40;99.90;;;;;;5037030;28;20079;-81
2022/10/30 04:25:45;;;;;;;36.90;14.35;;;12.30;99.90;;;;;;5063236;28;20040;-81
2022/10/30 04:28:11;;;;;;;36.40;15.02;;;12.40;99.90;;;;;;5090433;28;20057;-79
2022/10/30 04:30:38;;;;;;;37.08;14.85;;;12.40;99.90;;;;;;5044505;28;20035;-81
2022/10/30 04:33:06;;;;;;;37.03;14.65;;;12.50;99.90;;;;;;5046839;28;20028;-80
2022/10/30 04:35:35;;;;;;;44.55;16.58;;;12.40;99.90;;;;;;5034719;28;22113;-80
2022/10/30 04:38:09;;;;;;;32.65;15.75;;;12.40;99.90;;;;;;5037436;28;20120;-80
2022/10/30 04:40:36;;;;;;;49.22;16.38;;;12.50;99.90;;;;;;5043750;28;20041;-81
2022/10/30 04:43:03;;;;;;;30.65;14.40;;;12.40;99.90;;;;;;5057442;28;20102;-79
2022/10/30 04:46:06;;;;;;;44.03;15.60;;;12.40;99.90;;;;;;5040099;28;20071;-80
2022/10/30 04:48:33;;;;;;;39.88;15.43;;;12.30;99.90;;;;;;5060125;28;20118;-80
2022/10/30 04:51:00;;;;;;;34.05;15.70;;;12.40;99.90;;;;;;5045028;28;20063;-81
2022/10/30 04:53:25;;;;;;;38.55;14.85;;;12.30;99.90;;;;;;5038851;28;20120;-80
2022/10/30 04:55:54;;;;;;;31.48;14.88;;;12.40;99.90;;;;;;5052567;28;20127;-78
2022/10/30 04:58:20;;;;;;;30.25;14.90;;;12.30;99.90;;;;;;5075013;28;20152;-80
2022/10/30 05:00:46;;;;;;;43.13;15.10;;;12.30;99.90;;;;;;5058498;28;20155;-81
2022/10/30 05:03:20;;;;;;;33.67;15.00;;;12.30;99.90;;;;;;5072700;28;20463;-78
2022/10/30 05:05:54;;;;;;;36.17;15.30;;;12.40;99.90;;;;;;5039741;28;20074;-81
2022/10/30 05:08:20;;;;;;;41.37;15.20;;;12.40;99.90;;;;;;5052765;28;20464;-82
2022/10/30 05:10:45;;;;;;;39.60;15.20;;;12.20;99.90;;;;;;5061841;28;20035;-80
2022/10/30 05:13:11;;;;;;;32.65;16.23;;;12.30;99.90;;;;;;5062314;28;20045;-80
2022/10/30 05:15:37;;;;;;;35.85;15.38;;;12.30;99.90;;;;;;5071077;28;20051;-81
2022/10/30 05:18:02;;;;;;;36.55;16.13;;;12.30;99.90;;;;;;5042632;28;20040;-81
2022/10/30 05:20:28;;;;;;;40.85;16.15;;;12.20;99.90;;;;;;5059806;28;20051;-80
2022/10/30 05:22:55;;;;;;;39.28;16.00;;;12.40;99.90;;;;;;5060363;28;20087;-80
2022/10/30 05:25:21;;;;;;;33.70;15.60;;;12.20;99.90;;;;;;5053224;28;20078;-81
2022/10/30 05:27:46;;;;;;;46.17;16.55;;;12.30;99.90;;;;;;5055090;28;20448;-82
2022/10/30 05:30:12;;;;;;;32.70;15.70;;;12.10;99.90;;;;;;5046251;28;20163;-81
2022/10/30 05:32:38;;;;;;;33.22;15.45;;;12.20;99.90;;;;;;5063414;28;20033;-82
2022/10/30 05:35:04;;;;;;;41.85;16.45;;;12.20;99.90;;;;;;5042405;28;20036;-81
2022/10/30 05:37:30;;;;;;;31.48;15.27;;;12.10;99.90;;;;;;5042819;28;20071;-79
2022/10/30 05:39:55;;;;;;;36.28;15.60;;;12.20;99.90;;;;;;5071514;28;20138;-80
2022/10/30 05:42:21;;;;;;;38.50;15.27;;;12.20;99.90;;;;;;5060199;28;20080;-78
2022/10/30 05:44:56;;;;;;;34.40;16.08;;;12.20;99.90;;;;;;5043231;28;20040;-78
2022/10/30 05:47:21;;;;;;;36.97;15.52;;;12.10;99.90;;;;;;5075524;28;20060;-78
2022/10/30 05:49:47;;;;;;;38.20;15.32;;;12.00;99.90;;;;;;5050877;28;20075;-78
2022/10/30 05:52:13;;;;;;;35.83;14.68;;;12.00;99.90;;;;;;5050499;28;20044;-80
2022/10/30 05:54:38;;;;;;;35.33;15.60;;;12.00;99.90;;;;;;5066282;28;20037;-79
2022/10/30 05:57:04;;;;;;;31.83;15.70;;;12.00;99.90;;;;;;5062880;28;20105;-77
2022/10/30 05:59:30;;;;;;;39.38;15.95;;;12.10;99.90;;;;;;5044952;28;20052;-80
2022/10/30 06:01:57;;;;;;;34.50;15.27;;;12.00;99.90;;;;;;5063067;28;20044;-79
2022/10/30 06:04:22;;;;;;;36.47;15.85;;;11.80;99.90;;;;;;5097514;27;20067;-81
2022/10/30 06:06:48;;;;;;;41.33;16.58;;;11.80;99.90;;;;;;5045936;28;20048;-80
2022/10/30 06:09:14;;;;;;;42.05;16.13;;;11.80;99.90;;;;;;5064972;28;20044;-78
2022/10/30 06:11:39;;;;;;;39.22;16.13;;;11.80;99.90;;;;;;5059570;28;20462;-81
2022/10/30 06:14:05;;;;;;;42.42;16.08;;;11.90;99.90;;;;;;5093972;27;20044;-79
2022/10/30 06:16:30;;;;;;;39.88;16.23;;;11.70;99.90;;;;;;5079941;28;20121;-80
2022/10/30 06:18:58;;;;;;;40.35;17.27;;;11.70;99.90;;;;;;5062328;28;20028;-79
2022/10/30 06:21:23;;;;;;;31.58;15.32;;;11.80;99.90;;;;;;5046550;28;20039;-79
2022/10/30 06:23:49;;;;;;;32.45;15.95;;;11.80;99.90;;;;;;5060341;28;20040;-79
2022/10/30 06:26:16;;;;;;;38.00;15.70;;;11.70;99.90;;;;;;5075520;28;20039;-80
2022/10/30 06:28:41;;;;;;;32.53;16.63;;;11.70;99.90;;;;;;5065604;28;20040;-78
2022/10/30 06:31:07;;;;;;;47.25;17.52;;;11.60;99.90;;;;;;5090287;28;20049;-81
2022/10/30 06:33:33;;;;;;;43.38;17.60;;;11.60;99.90;;;;;;5061655;28;20071;-78
2022/10/30 06:35:58;;;;;;;39.00;16.40;;;11.70;99.90;;;;;;5075373;28;20504;-81
2022/10/30 06:38:24;;;;;;;27.92;15.73;;;11.70;99.90;;;;;;5068951;28;20062;-81
2022/10/30 06:40:50;;;;;;;44.88;17.63;;;11.70;99.90;;;;;;5049702;28;20097;-79
2022/10/30 06:43:15;;;;;;;41.08;17.42;;;11.50;99.90;;;;;;5044948;28;20079;-79
2022/10/30 06:45:41;;;;;;;38.38;16.95;;;11.60;99.90;;;;;;5045216;28;20063;-79
2022/10/30 06:48:08;;;;;;;39.28;17.23;;;11.70;99.90;;;;;;5060858;28;20043;-81
2022/10/30 06:50:34;;;;;;;39.90;16.70;;;11.70;99.90;;;;;;5052031;28;20131;-79
2022/10/30 06:53:00;;;;;;;39.83;16.65;;;11.70;99.90;;;;;;5092298;27;20391;-81
2022/10/30 06:55:25;;;;;;;38.67;17.40;;;11.70;99.90;;;;;;5053517;28;20048;-81
2022/10/30 06:57:57;;;;;;;37.30;17.23;;;11.60;99.90;;;;;;5060173;28;20047;-83
2022/10/30 07:00:23;;;;;;;39.33;17.40;;;11.70;99.90;;;;;;5062694;28;20048;-82
2022/10/30 07:02:59;;;;;;;33.65;16.83;;;11.60;99.90;;;;;;5073487;28;20025;-83
2022/10/30 07:05:25;;;;;;;39.58;17.50;;;11.60;99.90;;;;;;5066167;28;20487;-81
2022/10/30 07:07:50;;;;;;;36.88;17.10;;;11.80;99.90;;;;;;5043988;28;20028;-86
2022/10/30 07:10:17;;;;;;;45.67;16.90;;;11.70;99.90;;;;;;5067165;28;20048;-84
2022/10/30 07:12:50;;;;;;;37.15;17.20;;;11.80;99.90;;;;;;5072329;28;20447;-83
2022/10/30 07:15:17;;;;;;;36.63;17.27;;;11.70;99.90;;;;;;5038764;28;20087;-83
2022/10/30 07:17:49;;;;;;;40.80;17.88;;;11.80;99.90;;;;;;5055955;28;20072;-81
2022/10/30 07:20:15;;;;;;;40.60;17.08;;;11.80;99.90;;;;;;5091658;28;20039;-81
2022/10/30 07:22:41;;;;;;;34.83;16.48;;;11.90;99.90;;;;;;5039374;28;20041;-82
2022/10/30 07:25:07;;;;;;;39.45;18.13;;;11.90;99.90;;;;;;5063199;28;20082;-83
2022/10/30 07:27:39;;;;;;;35.70;16.65;;;11.90;99.90;;;;;;5038064;28;20032;-82
2022/10/30 07:30:07;;;;;;;43.33;17.42;;;11.90;99.90;;;;;;5044286;28;20119;-84
2022/10/30 07:32:33;;;;;;;36.80;17.13;;;12.10;99.90;;;;;;5064991;28;20044;-82
2022/10/30 07:34:59;;;;;;;38.63;17.45;;;12.00;99.90;;;;;;5062099;28;20093;-84
2022/10/30 07:37:24;;;;;;;36.10;17.23;;;12.00;99.90;;;;;;5057444;28;20545;-82
2022/10/30 07:39:50;;;;;;;37.53;17.75;;;12.10;99.90;;;;;;5062687;28;20070;-82
2022/10/30 07:42:15;;;;;;;34.30;16.77;;;12.10;99.90;;;;;;5076398;28;20540;-83
2022/10/30 07:44:41;;;;;;;38.13;17.48;;;12.10;99.90;;;;;;5061350;28;20040;-84
2022/10/30 07:47:07;;;;;;;36.03;16.55;;;12.20;99.90;;;;;;5061319;28;20052;-83
2022/10/30 07:49:32;;;;;;;42.40;17.85;;;12.20;99.90;;;;;;5094947;28;20056;-81
2022/10/30 07:51:58;;;;;;;36.30;18.08;;;12.40;99.90;;;;;;5063216;28;20039;-85
2022/10/30 07:54:24;;;;;;;41.22;17.30;;;12.40;99.90;;;;;;5068881;28;20412;-83
2022/10/30 07:56:49;;;;;;;40.17;18.00;;;12.50;99.90;;;;;;5047116;28;20072;-85
2022/10/30 07:59:15;;;;;;;41.60;17.45;;;12.40;99.90;;;;;;5070154;28;20036;-85
2022/10/30 08:01:41;;;;;;;36.28;16.77;;;12.40;99.90;;;;;;5051876;28;20065;-82
2022/10/30 08:04:10;;;;;;;40.17;17.95;;;12.60;99.90;;;;;;5092470;28;20050;-82
2022/10/30 08:06:35;;;;;;;35.58;16.45;;;12.60;99.90;;;;;;5064486;28;20056;-79
2022/10/30 08:09:01;;;;;;;37.92;16.30;;;12.80;99.90;;;;;;5078558;28;20039;-81
2022/10/30 08:11:27;;;;;;;38.80;16.85;;;12.80;99.90;;;;;;5080958;28;20169;-83
2022/10/30 08:13:52;;;;;;;35.38;16.88;;;12.90;99.90;;;;;;5044574;28;20403;-84
2022/10/30 08:16:18;;;;;;;33.28;16.55;;;12.90;99.90;;;;;;5060958;28;21855;-85
2022/10/30 08:18:44;;;;;;;33.30;16.80;;;13.00;99.90;;;;;;5081091;28;20035;-82
2022/10/30 08:21:09;;;;;;;36.97;17.27;;;13.00;99.90;;;;;;5047092;28;20036;-84
2022/10/30 08:23:35;;;;;;;37.88;16.88;;;13.10;99.90;;;;;;5061803;28;20064;-84
2022/10/30 08:26:01;;;;;;;34.47;17.60;;;13.10;99.90;;;;;;5094965;28;20037;-80
2022/10/30 08:28:26;;;;;;;34.72;17.20;;;13.10;99.90;;;;;;5105543;27;20040;-79
2022/10/30 08:30:52;;;;;;;34.88;17.20;;;13.20;99.90;;;;;;5074623;28;20060;-78
2022/10/30 08:33:19;;;;;;;39.90;17.27;;;13.30;99.90;;;;;;5054373;28;21059;-81
2022/10/30 08:35:53;;;;;;;36.75;17.88;;;13.30;99.90;;;;;;5056548;28;20048;-82
2022/10/30 08:38:19;;;;;;;41.10;17.90;;;13.50;99.90;;;;;;5072823;28;20186;-82
2022/10/30 08:40:44;;;;;;;32.10;17.42;;;13.50;99.90;;;;;;5073356;28;20048;-79
2022/10/30 08:43:10;;;;;;;32.30;16.83;;;13.70;99.90;;;;;;5090092;28;20051;-83
2022/10/30 08:45:36;;;;;;;36.40;17.77;;;13.70;99.90;;;;;;5043357;28;20075;-84
2022/10/30 08:48:04;;;;;;;33.92;17.67;;;13.60;99.90;;;;;;5052981;28;20157;-82
2022/10/30 08:50:31;;;;;;;34.80;16.92;;;13.80;99.90;;;;;;5050420;28;20517;-84
2022/10/30 08:53:05;;;;;;;39.40;17.00;;;13.80;99.90;;;;;;5069686;28;20119;-82
2022/10/30 08:55:31;;;;;;;68.37;18.57;;;13.90;99.90;;;;;;5076643;28;20048;-81
2022/10/30 08:57:58;;;;;;;34.38;16.60;;;13.90;99.90;;;;;;5068028;28;20040;-81
2022/10/30 09:00:24;;;;;;;30.88;16.63;;;14.00;99.90;;;;;;5067461;28;20048;-82
2022/10/30 09:03:09;;;;;;;40.72;17.40;;;14.10;99.90;;;;;;5059921;28;20044;-82
2022/10/30 09:05:38;;;;;;;38.33;16.08;;;14.10;99.90;;;;;;5067184;28;20348;-82
2022/10/30 09:08:04;;;;;;;44.53;16.27;;;14.20;99.90;;;;;;5053195;28;20060;-83
2022/10/30 09:10:30;;;;;;;41.25;16.75;;;14.20;99.90;;;;;;5063493;28;20494;-82
2022/10/30 09:12:58;;;;;;;36.42;16.63;;;14.30;99.90;;;;;;5077446;28;20047;-83
2022/10/30 09:15:25;;;;;;;56.67;17.30;;;14.50;99.90;;;;;;5081583;28;20151;-82
2022/10/30 09:18:09;;;;;;;36.70;16.42;;;14.60;99.90;;;;;;5083776;28;20036;-82
2022/10/30 09:20:37;;;;;;;33.72;15.10;;;14.70;99.90;;;;;;5067851;28;20038;-80
2022/10/30 09:23:03;;;;;;;34.75;16.52;;;14.60;99.90;;;;;;5072427;28;20040;-82
2022/10/30 09:25:29;;;;;;;33.00;16.42;;;14.70;99.90;;;;;;5048561;28;20054;-82
2022/10/30 09:27:55;;;;;;;48.35;16.13;;;15.00;99.90;;;;;;5092206;28;20044;-84
2022/10/30 09:30:21;;;;;;;34.72;15.35;;;15.00;99.90;;;;;;5064713;28;20044;-80
2022/10/30 09:36:28;;;;;;;41.42;16.00;;;15.20;99.90;;;;;;5081574;28;20146;-79
2022/10/30 09:38:54;;;;;;;36.92;15.75;;;15.30;99.90;;;;;;5083135;28;20499;-82
2022/10/30 09:41:43;;;;;;;31.65;14.77;;;15.20;99.90;;;;;;5092692;28;20333;-86
2022/10/30 09:44:28;;;;;;;33.28;15.52;;;15.50;99.90;;;;;;5077960;28;20127;-81
2022/10/30 09:47:31;;;;;;;30.67;14.52;;;15.60;99.90;;;;;;5065284;28;20063;-79
2022/10/30 09:50:22;;;;;;;179.88;22.48;;;15.50;99.90;;;;;;5053376;28;20036;-82
2022/10/30 09:52:59;;;;;;;83.10;16.27;;;15.60;99.90;;;;;;5040931;28;20048;-85
2022/10/30 09:55:28;;;;;;;40.20;14.50;;;15.60;99.90;;;;;;5057535;28;20063;-84
2022/10/30 09:58:10;;;;;;;34.22;14.25;;;15.80;99.90;;;;;;5079682;28;20268;-84
2022/10/30 10:00:40;;;;;;;38.53;15.23;;;15.80;99.90;;;;;;5057832;28;20511;-80
2022/10/30 10:03:23;;;;;;;40.20;14.07;;;16.00;99.90;;;;;;5040653;28;20040;-81
2022/10/30 10:06:00;;;;;;;35.53;14.07;;;16.00;99.90;;;;;;5080259;28;20100;-79
2022/10/30 10:08:33;;;;;;;36.38;15.10;;;15.90;99.90;;;;;;5056840;28;20048;-84
2022/10/30 10:11:04;;;;;;;31.20;13.40;;;16.10;99.90;;;;;;5068469;28;20488;-83
2022/10/30 10:14:09;;;;;;;26.88;12.90;;;16.20;99.90;;;;;;5040929;28;20043;-87
2022/10/30 10:16:39;;;;;;;36.45;14.02;;;16.20;99.90;;;;;;5062857;28;20050;-82
2022/10/30 10:19:20;;;;;;;27.00;12.55;;;16.50;99.90;;;;;;5061033;28;20093;-82
2022/10/30 10:21:52;;;;;;;34.20;13.15;;;16.50;99.90;;;;;;5078529;28;20032;-84
2022/10/30 10:24:25;;;;;;;123.93;18.05;;;16.60;99.90;;;;;;5093140;28;20430;-82
2022/10/30 10:27:17;;;;;;;318.98;29.15;;;16.80;99.90;;;;;;5070573;28;20047;-87
2022/10/30 10:29:52;;;;;;;41.38;12.98;;;16.80;99.90;;;;;;5060770;28;20097;-82
2022/10/30 10:32:43;;;;;;;;;;;16.60;99.90;;;;;;5053395;28;20113;-82
2022/10/30 10:35:31;;;;;;;31.92;12.70;;;16.40;99.90;;;;;;5043215;28;19916;-86
2022/10/30 10:38:11;;;;;;;35.13;13.13;;;16.50;99.90;;;;;;5094339;28;20040;-83
2022/10/30 10:40:56;;;;;;;35.95;12.20;;;16.60;99.90;;;;;;5093988;28;20035;-85
2022/10/30 10:43:41;;;;;;;30.38;12.48;;;16.80;99.90;;;;;;5059769;28;20040;-80
2022/10/30 10:46:39;;;;;;;24.98;12.02;;;16.70;99.90;;;;;;5099536;28;20048;-82
2022/10/30 10:49:10;;;;;;;33.33;11.07;;;16.90;99.90;;;;;;5057302;28;20063;-85
2022/10/30 10:52:03;;;;;;;29.77;11.45;;;16.90;99.90;;;;;;5058962;28;20051;-84
2022/10/30 10:54:43;;;;;;;34.75;10.55;;;17.20;99.90;;;;;;5071675;28;20036;-86
2022/10/30 10:57:24;;;;;;;26.35;10.77;;;17.10;99.90;;;;;;5100146;28;20132;-79
2022/10/30 10:59:57;;;;;;;28.60;10.77;;;17.20;99.90;;;;;;5066244;28;20052;-79
2022/10/30 11:02:45;;;;;;;55.63;11.52;;;17.30;99.90;;;;;;5081424;28;20391;-84
2022/10/30 11:05:33;;;;;;;22.52;10.27;;;17.20;99.90;;;;;;5079840;28;20491;-83
2022/10/30 11:08:25;;;;;;;29.95;9.63;;;17.30;99.90;;;;;;5064888;28;20418;-85
2022/10/30 11:10:57;;;;;;;28.98;9.88;;;17.50;99.90;;;;;;5076728;28;20404;-84
2022/10/30 11:13:28;;;;;;;25.20;9.65;;;17.40;99.90;;;;;;5059672;28;20165;-86
2022/10/30 11:16:07;;;;;;;26.25;10.23;;;17.60;99.90;;;;;;5056419;28;20567;-85
2022/10/30 11:18:33;;;;;;;27.13;10.10;;;17.70;99.90;;;;;;5039904;28;20041;-83
2022/10/30 11:21:03;;;;;;;24.13;9.65;;;17.80;99.90;;;;;;5056859;28;20040;-81
2022/10/30 11:23:30;;;;;;;25.40;9.55;;;17.60;99.90;;;;;;5054522;28;20036;-86
2022/10/30 11:25:56;;;;;;;35.08;10.05;;;17.80;99.90;;;;;;5057602;28;20119;-87
2022/10/30 11:28:37;;;;;;;27.65;9.27;;;17.90;99.90;;;;;;5056176;28;20090;-82
2022/10/30 11:31:21;;;;;;;22.15;10.07;;;18.00;99.90;;;;;;5072824;28;20404;-82
2022/10/30 11:33:47;;;;;;;25.48;9.18;;;18.20;99.90;;;;;;5057569;28;20082;-83
2022/10/30 11:36:15;;;;;;;28.80;8.93;;;18.20;99.90;;;;;;5089565;28;20464;-84
2022/10/30 11:38:41;;;;;;;23.08;8.60;;;18.30;99.90;;;;;;5105889;28;20134;-81
2022/10/30 11:41:09;;;;;;;21.02;8.63;;;18.40;99.90;;;;;;5097861;28;20127;-82
2022/10/30 11:43:37;;;;;;;29.17;8.60;;;18.50;99.90;;;;;;5084455;28;20036;-86
2022/10/30 11:46:08;;;;;;;20.10;8.35;;;18.60;99.90;;;;;;5056366;28;20036;-86
2022/10/30 11:48:38;;;;;;;22.73;9.02;;;18.60;99.90;;;;;;5067674;28;20056;-82
2022/10/30 11:51:04;;;;;;;24.00;9.00;;;18.80;99.90;;;;;;5093162;28;20082;-84
2022/10/30 11:53:38;;;;;;;22.90;8.95;;;18.70;99.90;;;;;;5070249;28;20494;-84
2022/10/30 11:56:18;;;;;;;29.40;9.07;;;18.50;99.90;;;;;;5052495;28;20090;-87
2022/10/30 11:58:52;;;;;;;23.65;9.77;;;18.40;99.90;;;;;;5056346;28;20514;-84
2022/10/30 12:01:34;;;;;;;28.80;9.25;;;18.40;99.90;;;;;;5109880;28;20456;-85
2022/10/30 12:04:22;;;;;;;107.72;13.43;;;18.50;99.90;;;;;;5073289;28;20169;-84
2022/10/30 12:07:14;;;;;;;54.22;9.80;;;18.50;99.90;;;;;;5090215;28;20525;-84
2022/10/30 12:09:45;;;;;;;204.00;17.88;;;18.60;99.90;;;;;;5047648;28;20056;-82
2022/10/30 12:12:32;;;;;;;59.15;11.07;;;18.40;99.90;;;;;;5050529;28;20189;-82
2022/10/30 12:15:11;;;;;;;46.63;9.68;;;18.40;99.90;;;;;;5034299;28;20055;-84
2022/10/30 12:17:39;;;;;;;30.45;8.65;;;18.60;99.90;;;;;;5035360;28;20044;-82
2022/10/30 12:20:07;;;;;;;25.10;7.90;;;18.40;99.90;;;;;;5004208;28;20049;-84
2022/10/30 12:22:34;;;;;;;21.77;7.28;;;18.40;99.90;;;;;;5034251;28;20116;-82
2022/10/30 12:25:03;;;;;;;24.60;8.00;;;18.70;99.90;;;;;;5028352;28;20539;-82
2022/10/30 12:27:33;;;;;;;22.60;7.68;;;18.60;99.90;;;;;;5017063;28;20049;-83
2022/10/30 12:30:19;;;;;;;21.75;7.32;;;18.80;99.90;;;;;;5023121;28;20091;-83
2022/10/30 12:33:01;;;;;;;24.63;8.00;;;18.80;99.90;;;;;;5022907;28;20421;-82
2022/10/30 12:35:37;;;;;;;18.63;7.05;;;18.70;99.90;;;;;;5062811;28;20229;-83
2022/10/30 12:38:09;;;;;;;23.45;7.30;;;18.90;99.90;;;;;;5009720;28;20373;-81
2022/10/30 12:40:42;;;;;;;31.73;7.15;;;18.90;99.90;;;;;;5015072;28;20204;-83
2022/10/30 12:43:20;;;;;;;18.40;6.30;;;18.90;99.90;;;;;;5043869;28;20053;-84
2022/10/30 12:45:50;;;;;;;17.70;6.60;;;18.80;99.90;;;;;;5057034;28;20044;-81
2022/10/30 12:48:37;;;;;;;23.10;6.00;;;18.70;99.90;;;;;;5062933;28;20056;-82